Hanks, North Dakota
Current Conditions -  °F | °C
As of 7:52 PM on Friday 19 Dec 2014 (Local Time) from KISN Reporting Station
Moderate Fog Moderate Fog  
Wind Chill: 22°   Ceiling: 100
Heat Index: 22°   Visibility: 0.25mi
Dew Point: 21°   Wind: 3mph
Humidity: 96%   Direction: 360°N
Pressure: 29.92"   Gusts: NA
Location:  48.5906°N, 103.667°W
Report Text: KISN 200152Z AUTO 36003KT 1/4SM FZFG VV001 M06/M06 A2992 RMK AO2 SLP164 I1003 T10561061
Loading
Personal Weather Stations






























Interactive Weather Map New forecast layout! Learn more

10-Day Weather Forecast

Advertisements
Track Severe Weather on mobile